Terminal Aerodrome Forecast
Issued by NWS

Home | Current Version | Previous Version | Text Only | Print | Product List | Glossary On
Versions: 1 2 3 4 5 6 7 8 9 10 11 12 13 14 15 16 17 18 19 20
000
FTUS43 KDMX 160409 AAA
TAFMCW
TAF AMD
KMCW 160409Z 1604/1624 12011KT P6SM BKN110
     FM160600 12016KT P6SM BKN100
     FM161500 18019G26KT P6SM SCT040 BKN080=

USA.gov is the U.S. government's official web portal to all federal, state and local government web resources and services.